Time;durP1;ratioP1;P1;durP2;ratioP2;P2;SDS_P1;SDS_P2;PMS_P1;PMS_P2;Temp;Humidity;BMP_temperature;BMP_pressure;BME280_temperature;BME280_humidity;BME280_pressure;Samples;Min_cycle;Max_cycle;Signal;HPM_P1;HPM_P2
2022/05/19 06:01:48;;;;;;;68.57;8.80;;;22.00;78.30;;;;;;6124760;23;20454;-83
2022/05/19 06:04:14;;;;;;;70.10;10.77;;;21.80;78.10;;;;;;6127241;23;20367;-83
2022/05/19 06:06:45;;;;;;;69.67;9.07;;;21.90;82.30;;;;;;6104197;23;20643;-83
2022/05/19 06:09:12;;;;;;;68.60;9.50;;;21.70;76.30;;;;;;6103222;23;20370;-83
2022/05/19 06:11:38;;;;;;;69.53;10.87;;;21.70;76.80;;;;;;6101203;23;20397;-83
2022/05/19 06:14:04;;;;;;;69.07;11.57;;;21.70;76.00;;;;;;6101509;23;20461;-83
2022/05/19 06:16:30;;;;;;;69.00;9.47;;;21.90;75.60;;;;;;6102054;23;20379;-83
2022/05/19 06:18:56;;;;;;;68.57;8.63;;;21.90;77.20;;;;;;6128316;23;20374;-83
2022/05/19 06:21:22;;;;;;;76.53;13.37;;;22.00;73.50;;;;;;6101362;23;20419;-85
2022/05/19 06:23:48;;;;;;;67.70;5.20;;;22.20;72.60;;;;;;6097224;23;20386;-84
2022/05/19 06:26:14;;;;;;;68.70;9.03;;;22.20;67.20;;;;;;6099638;23;20233;-84
2022/05/19 06:28:39;;;;;;;67.60;7.07;;;22.20;69.90;;;;;;6126069;23;20147;-85
2022/05/19 06:31:05;;;;;;;67.67;7.33;;;22.20;67.50;;;;;;6100014;23;20175;-84
2022/05/19 06:33:34;;;;;;;68.07;6.17;;;22.30;69.00;;;;;;6126008;23;20159;-84
2022/05/19 06:35:59;;;;;;;68.13;5.77;;;22.30;60.60;;;;;;6099399;23;20214;-84
2022/05/19 06:38:25;;;;;;;68.10;5.13;;;22.40;62.90;;;;;;6125980;23;20367;-83
2022/05/19 06:40:51;;;;;;;67.20;4.33;;;22.50;56.10;;;;;;6099805;23;20224;-85
2022/05/19 06:43:19;;;;;;;68.80;6.27;;;22.50;49.20;;;;;;6125819;23;20151;-85
2022/05/19 06:45:44;;;;;;;66.27;4.20;;;22.60;47.80;;;;;;6125932;23;20146;-84
2022/05/19 06:48:11;;;;;;;66.77;4.20;;;22.70;47.80;;;;;;6126394;23;20406;-85
2022/05/19 06:50:36;;;;;;;69.50;5.43;;;22.70;47.10;;;;;;6099915;23;20150;-85
2022/05/19 06:53:03;;;;;;;67.67;5.13;;;22.70;48.50;;;;;;6125636;23;20435;-85
2022/05/19 06:55:32;;;;;;;69.50;5.23;;;22.90;44.50;;;;;;6125657;23;20583;-84
2022/05/19 06:57:58;;;;;;;66.63;4.37;;;22.90;41.30;;;;;;6126221;23;20885;-85
2022/05/19 07:00:26;;;;;;;67.90;5.90;;;23.00;43.40;;;;;;6126305;23;20369;-85
2022/05/19 07:02:57;;;;;;;66.20;5.00;;;23.10;43.60;;;;;;6122682;23;20766;-85
2022/05/19 07:05:27;;;;;;;66.60;4.00;;;23.20;43.70;;;;;;6126549;23;20367;-85
2022/05/19 07:07:53;;;;;;;70.27;5.03;;;23.20;46.20;;;;;;6126639;23;20375;-85
2022/05/19 07:10:24;;;;;;;67.37;6.00;;;23.20;45.90;;;;;;6125956;23;20438;-85
2022/05/19 07:12:51;;;;;;;68.07;4.37;;;23.30;43.00;;;;;;6125648;22;20163;-85
2022/05/19 07:15:19;;;;;;;68.60;5.10;;;23.40;44.80;;;;;;6148313;23;20432;-83
2022/05/19 07:17:45;;;;;;;69.50;4.50;;;23.50;44.30;;;;;;6126192;23;20384;-84
2022/05/19 07:22:55;;;;;;;67.23;4.77;;;23.40;43.90;;;;;;6125635;23;20133;-84
2022/05/19 07:25:21;;;;;;;65.87;4.13;;;23.40;47.30;;;;;;6125704;23;20398;-85
2022/05/19 07:27:47;;;;;;;72.33;4.60;;;23.40;49.30;;;;;;6148914;23;20722;-84
2022/05/19 07:30:14;;;;;;;68.17;4.93;;;23.50;44.80;;;;;;6125722;23;20371;-85
2022/05/19 07:32:40;;;;;;;70.90;4.70;;;23.70;43.10;;;;;;6148154;23;20401;-85
2022/05/19 07:35:07;;;;;;;66.80;4.90;;;23.90;42.30;;;;;;6125493;23;20399;-84
2022/05/19 07:37:33;;;;;;;68.17;8.50;;;24.20;39.80;;;;;;6124689;23;20580;-84
2022/05/19 07:39:59;;;;;;;69.27;11.23;;;24.40;30.90;;;;;;6124870;23;20378;-84
2022/05/19 07:42:25;;;;;;;72.17;14.87;;;24.40;28.60;;;;;;6125285;23;20182;-85
2022/05/19 07:44:51;;;;;;;70.20;11.60;;;24.50;27.00;;;;;;6123623;23;20492;-85
2022/05/19 07:47:17;;;;;;;68.97;5.57;;;24.60;30.40;;;;;;6125048;23;20425;-85
2022/05/19 07:49:43;;;;;;;67.17;6.40;;;24.60;37.50;;;;;;6124774;23;20841;-84
2022/05/19 07:52:10;;;;;;;68.30;4.60;;;24.70;35.50;;;;;;6123438;23;20475;-83
2022/05/19 07:54:36;;;;;;;68.60;8.00;;;24.70;38.80;;;;;;6123768;23;20414;-84
2022/05/19 07:57:03;;;;;;;66.30;6.20;;;24.80;33.60;;;;;;6148371;23;20381;-84
2022/05/19 07:59:30;;;;;;;71.37;7.40;;;24.90;32.90;;;;;;6125274;23;20376;-84
2022/05/19 08:01:55;;;;;;;66.50;5.97;;;25.10;32.70;;;;;;6153200;23;20416;-84
2022/05/19 08:04:22;;;;;;;68.60;7.20;;;25.20;34.20;;;;;;6154431;23;20438;-85
2022/05/19 08:06:48;;;;;;;70.37;14.80;;;25.30;34.70;;;;;;6128351;23;20157;-85
2022/05/19 08:11:59;;;;;;;73.77;12.50;;;25.10;20.90;;;;;;6154657;23;20517;-85
2022/05/19 08:17:12;;;;;;;70.00;13.40;;;25.10;20.60;;;;;;6155027;23;20139;-84
2022/05/19 08:19:38;;;;;;;69.53;11.80;;;25.00;24.00;;;;;;6154807;23;20418;-84
2022/05/19 08:22:05;;;;;;;68.80;11.10;;;24.80;23.00;;;;;;6155151;23;20476;-85
2022/05/19 08:24:31;;;;;;;68.13;8.70;;;24.90;22.30;;;;;;6154969;23;20368;-85
2022/05/19 08:26:58;;;;;;;69.93;8.63;;;24.80;19.60;;;;;;6128342;23;20757;-85
2022/05/19 08:29:23;;;;;;;71.53;7.97;;;24.90;19.70;;;;;;6154730;23;20864;-85
2022/05/19 08:31:49;;;;;;;69.47;11.17;;;24.90;18.20;;;;;;6128697;23;20408;-84
2022/05/19 08:34:15;;;;;;;69.67;5.77;;;25.00;20.30;;;;;;6154279;23;20533;-85
2022/05/19 08:36:43;;;;;;;68.47;7.87;;;25.20;15.80;;;;;;6128776;23;20422;-84
2022/05/19 08:39:10;;;;;;;67.63;3.87;;;25.40;16.10;;;;;;6155096;23;20142;-84
2022/05/19 08:41:43;;;;;;;68.07;4.23;;;25.50;1.30;;;;;;6128835;23;20396;-85
2022/05/19 08:44:26;;;;;;;73.27;4.30;;;25.60;6.10;;;;;;6155742;23;20367;-83
2022/05/19 08:46:54;;;;;;;70.93;4.87;;;25.70;1.00;;;;;;6154962;23;20348;-85
2022/05/19 08:49:24;;;;;;;69.50;4.67;;;25.90;1.10;;;;;;6155029;23;20443;-85
2022/05/19 08:52:00;;;;;;;67.27;4.53;;;26.00;1.00;;;;;;6128654;23;20447;-83
2022/05/19 08:54:26;;;;;;;68.07;4.60;;;25.90;1.00;;;;;;6155123;23;20397;-85
2022/05/19 08:57:31;;;;;;;69.57;3.73;;;25.80;1.00;;;;;;6128808;23;20456;-84
2022/05/19 09:00:15;;;;;;;70.27;5.40;;;25.80;1.00;;;;;;6128955;23;20490;-84
2022/05/19 09:02:56;;;;;;;69.37;4.87;;;25.80;1.00;;;;;;6128141;23;20493;-84
2022/05/19 09:05:34;;;;;;;66.67;3.83;;;25.90;1.00;;;;;;6154568;23;20423;-85
2022/05/19 09:08:20;;;;;;;69.10;4.60;;;26.00;1.00;;;;;;6154585;23;20500;-84
2022/05/19 09:10:55;;;;;;;69.10;4.50;;;26.20;1.00;;;;;;6155097;23;20382;-82
2022/05/19 09:13:53;;;;;;;68.33;4.60;;;26.30;1.00;;;;;;6154836;23;20389;-84
2022/05/19 09:16:20;;;;;;;66.73;4.30;;;26.10;1.00;;;;;;6154446;23;20351;-82
2022/05/19 09:19:13;;;;;;;68.17;4.40;;;26.20;1.00;;;;;;6146692;23;20456;-87
2022/05/19 09:21:41;;;;;;;67.07;3.90;;;26.30;1.00;;;;;;6153601;23;20382;-87
2022/05/19 09:24:08;;;;;;;65.90;3.23;;;26.50;1.00;;;;;;6154420;23;20358;-87
2022/05/19 09:26:46;;;;;;;68.80;4.33;;;26.50;1.00;;;;;;6153362;23;20450;-87
2022/05/19 09:29:21;;;;;;;69.93;3.80;;;26.60;1.00;;;;;;6153912;23;20718;-87
2022/05/19 09:31:58;;;;;;;70.77;4.10;;;26.70;1.00;;;;;;6127862;23;20398;-87
2022/05/19 09:34:37;;;;;;;65.80;3.30;;;26.90;1.00;;;;;;6153772;23;20497;-87
2022/05/19 09:37:14;;;;;;;67.23;4.10;;;27.10;1.00;;;;;;6127139;23;20381;-87
2022/05/19 09:40:20;;;;;;;68.30;3.70;;;27.10;1.00;;;;;;6128557;23;20423;-87
2022/05/19 09:43:06;;;;;;;67.87;4.40;;;27.30;1.00;;;;;;6127968;23;20396;-87
2022/05/19 09:45:47;;;;;;;69.73;3.80;;;27.50;1.00;;;;;;6127903;23;20370;-87
2022/05/19 09:48:24;;;;;;;70.03;3.50;;;27.50;1.00;;;;;;6154420;23;20373;-87
2022/05/19 09:50:50;;;;;;;67.73;3.60;;;27.70;1.00;;;;;;6154286;23;20392;-87
2022/05/19 09:53:25;;;;;;;67.97;3.93;;;27.80;1.00;;;;;;6153677;23;20734;-86
2022/05/19 09:56:04;;;;;;;67.10;3.40;;;28.00;1.00;;;;;;6153799;23;20692;-86
2022/05/19 09:58:34;;;;;;;66.33;3.77;;;28.10;1.00;;;;;;6154430;23;20348;-87
2022/05/19 10:01:18;;;;;;;68.60;4.43;;;28.00;1.00;;;;;;6154703;23;20718;-87
2022/05/19 10:07:22;;;;;;;67.00;3.37;;;28.20;1.00;;;;;;6182843;23;20748;-87
2022/05/19 10:09:50;;;;;;;67.97;3.40;;;28.20;1.00;;;;;;6154787;23;20334;-87
2022/05/19 10:12:29;;;;;;;67.70;4.37;;;28.20;1.00;;;;;;6129769;23;20428;-87
2022/05/19 10:15:14;;;;;;;67.67;4.07;;;28.20;1.00;;;;;;6128591;23;20486;-87
2022/05/19 10:17:53;;;;;;;68.37;4.47;;;28.50;1.00;;;;;;6128442;23;20406;-87
2022/05/19 10:20:29;;;;;;;68.90;5.50;;;28.70;1.00;;;;;;6129905;23;20369;-86
2022/05/19 10:23:14;;;;;;;68.67;5.00;;;28.70;1.00;;;;;;6155896;23;20372;-87
2022/05/19 10:26:02;;;;;;;68.40;6.07;;;28.70;1.00;;;;;;6154861;23;20343;-87
2022/05/19 10:31:40;;;;;;;72.33;6.63;;;28.80;1.00;;;;;;6154335;23;20436;-87
2022/05/19 10:34:42;;;;;;;69.67;5.90;;;28.90;1.00;;;;;;6127753;23;20416;-87
2022/05/19 10:37:38;;;;;;;69.17;5.70;;;28.90;1.00;;;;;;6129326;23;20401;-87
2022/05/19 10:40:12;;;;;;;67.80;4.70;;;28.60;1.00;;;;;;6128965;23;20370;-87
2022/05/19 10:43:09;;;;;;;67.63;4.67;;;28.50;1.00;;;;;;6128781;23;20397;-87
2022/05/19 10:45:56;;;;;;;67.47;5.70;;;28.20;1.00;;;;;;6155108;23;20350;-86
2022/05/19 10:48:37;;;;;;;71.57;6.17;;;28.20;1.00;;;;;;6128282;23;20370;-87
2022/05/19 10:51:13;;;;;;;72.57;6.10;;;28.40;1.00;;;;;;6154644;23;20377;-87
2022/05/19 10:53:54;;;;;;;68.57;6.67;;;28.70;1.00;;;;;;6154950;23;20476;-87
2022/05/19 10:56:57;;;;;;;70.40;6.77;;;28.80;1.00;;;;;;6154919;23;20382;-87
2022/05/19 10:59:37;;;;;;;67.67;5.00;;;28.70;1.00;;;;;;6153520;23;20368;-87
2022/05/19 11:02:37;;;;;;;68.40;6.43;;;28.80;1.00;;;;;;6128173;23;20439;-87
2022/05/19 11:05:22;;;;;;;67.17;4.80;;;28.70;1.00;;;;;;6153699;23;20347;-86
2022/05/19 11:08:02;;;;;;;68.37;6.00;;;28.60;1.00;;;;;;6154613;23;20349;-87
2022/05/19 11:11:02;;;;;;;69.17;5.90;;;28.70;1.00;;;;;;6154092;23;20370;-87
2022/05/19 11:13:49;;;;;;;68.20;6.30;;;28.70;1.00;;;;;;6154718;23;20472;-87
2022/05/19 11:16:34;;;;;;;70.37;5.90;;;28.60;1.00;;;;;;6128218;23;20370;-87
2022/05/19 11:19:23;;;;;;;70.20;6.80;;;28.50;1.00;;;;;;6123699;23;20390;-86
2022/05/19 11:22:04;;;;;;;68.20;7.60;;;28.50;1.00;;;;;;6125598;23;20379;-86
2022/05/19 11:27:38;;;;;;;67.50;7.40;;;28.50;1.00;;;;;;6125262;23;20349;-86
2022/05/19 11:30:18;;;;;;;68.37;7.30;;;28.60;1.00;;;;;;6126319;23;20834;-86
2022/05/19 11:32:48;;;;;;;72.83;7.10;;;28.80;1.00;;;;;;6148287;23;20394;-87
2022/05/19 11:35:20;;;;;;;68.43;6.20;;;29.00;1.00;;;;;;6150327;23;20387;-86
2022/05/19 11:38:12;;;;;;;70.10;6.07;;;29.30;1.00;;;;;;6125531;23;20434;-87
2022/05/19 11:41:09;;;;;;;69.30;6.80;;;29.60;1.00;;;;;;6148202;23;20385;-87
2022/05/19 11:44:13;;;;;;;68.27;5.60;;;30.00;1.00;;;;;;6125920;23;20366;-87
2022/05/19 11:47:23;;;;;;;70.33;4.37;;;30.50;1.00;;;;;;6125274;23;20416;-87
2022/05/19 11:56:33;;;;;;;75.73;4.40;;;30.90;1.00;;;;;;6128544;23;20358;-85
2022/05/19 11:59:20;;;;;;;68.63;4.53;;;30.80;1.00;;;;;;6152994;23;20377;-85
2022/05/19 12:02:02;;;;;;;;;;;;;;;;;;;;;
2022/05/19 12:04:35;;;;;;;67.07;3.80;;;31.10;1.00;;;;;;6122045;23;20413;-86
2022/05/19 12:07:22;;;;;;;68.60;3.80;;;30.90;1.00;;;;;;6152128;23;20954;-86
2022/05/19 12:12:54;;;;;;;69.20;3.73;;;31.00;1.00;;;;;;6127217;23;20925;-86
2022/05/19 12:15:34;;;;;;;69.40;4.73;;;30.80;1.00;;;;;;6127531;23;20438;-86
2022/05/19 12:18:08;;;;;;;68.27;3.60;;;30.90;1.00;;;;;;6154480;23;20924;-86
2022/05/19 12:20:50;;;;;;;67.10;4.57;;;30.90;1.00;;;;;;6156658;23;20376;-86
2022/05/19 12:23:24;;;;;;;69.13;4.17;;;31.50;1.00;;;;;;6156345;23;20339;-86
2022/05/19 12:26:12;;;;;;;69.90;5.00;;;31.60;1.00;;;;;;6157865;23;20730;-86
2022/05/19 12:29:11;;;;;;;69.90;3.80;;;31.50;1.00;;;;;;6127454;23;20378;-87
2022/05/19 12:31:59;;;;;;;70.03;4.10;;;31.60;1.00;;;;;;6165633;22;20430;-87
2022/05/19 12:34:49;;;;;;;71.33;4.43;;;31.70;1.00;;;;;;6163311;23;20398;-86
2022/05/19 12:37:42;;;;;;;69.27;3.43;;;31.80;1.00;;;;;;6161177;23;20350;-85
2022/05/19 12:40:30;;;;;;;67.57;5.13;;;31.90;1.00;;;;;;6154235;23;20366;-86
2022/05/19 12:43:24;;;;;;;70.63;3.90;;;32.00;1.00;;;;;;6153586;23;20434;-86
2022/05/19 12:45:59;;;;;;;68.27;3.73;;;31.70;1.00;;;;;;6128563;23;20381;-86
2022/05/19 12:48:46;;;;;;;67.00;4.47;;;31.80;1.00;;;;;;6127345;23;20698;-85
2022/05/19 12:51:17;;;;;;;68.77;4.30;;;32.00;1.00;;;;;;6153449;23;20382;-85
2022/05/19 12:53:52;;;;;;;67.53;4.10;;;31.50;1.00;;;;;;6153646;23;20447;-86
2022/05/19 12:56:46;;;;;;;73.03;4.90;;;31.80;1.00;;;;;;6127444;23;20433;-85
2022/05/19 12:59:27;;;;;;;67.73;3.90;;;32.20;1.00;;;;;;6153667;23;20354;-85
2022/05/19 13:01:57;;;;;;;69.67;5.17;;;32.40;1.00;;;;;;6127959;23;20417;-86
2022/05/19 13:04:25;;;;;;;67.00;3.97;;;32.00;1.00;;;;;;6153728;23;20699;-85
2022/05/19 13:06:54;;;;;;;67.47;4.50;;;31.90;1.00;;;;;;6153598;23;20460;-85
2022/05/19 13:09:25;;;;;;;66.87;4.33;;;31.70;1.00;;;;;;6153640;23;20376;-85
2022/05/19 13:11:54;;;;;;;67.57;4.73;;;31.30;1.00;;;;;;6127816;23;20905;-85
2022/05/19 13:14:28;;;;;;;67.13;3.90;;;30.80;1.00;;;;;;6128535;23;20466;-85
2022/05/19 13:16:55;;;;;;;67.93;3.70;;;30.50;1.00;;;;;;6154816;23;20448;-86
2022/05/19 13:19:29;;;;;;;71.13;4.17;;;30.30;1.00;;;;;;6154145;23;20386;-85
2022/05/19 13:22:09;;;;;;;67.37;3.20;;;30.00;1.00;;;;;;6153579;23;20389;-85
2022/05/19 13:24:39;;;;;;;92.50;7.47;;;29.70;1.00;;;;;;6126228;23;20452;-85
2022/05/19 13:30:51;;;;;;;132.40;16.20;;;27.50;1.00;;;;;;6152976;23;20365;-85
2022/05/19 13:33:21;;;;;;;115.17;12.17;;;25.90;53.30;;;;;;6152363;23;20394;-86
2022/05/19 13:36:05;;;;;;;114.60;19.17;;;24.80;95.40;;;;;;6151726;23;20351;-86
2022/05/19 13:38:34;;;;;;;106.03;15.67;;;24.20;99.90;;;;;;6126300;23;20818;-86
2022/05/19 13:41:02;;;;;;;128.03;61.60;;;23.90;99.90;;;;;;6151490;23;20393;-86
2022/05/19 13:43:46;;;;;;;141.93;93.77;;;23.40;99.90;;;;;;6152072;23;20451;-86
2022/05/19 13:46:16;;;;;;;81.87;18.60;;;22.80;99.90;;;;;;6152182;23;20360;-84
2022/05/19 13:49:00;;;;;;;92.00;48.60;;;22.00;99.90;;;;;;6152335;23;20366;-84
2022/05/19 13:51:31;;;;;;;80.87;35.13;;;21.60;99.90;;;;;;6152285;23;20389;-85
2022/05/19 13:54:07;;;;;;;70.50;18.47;;;21.30;99.90;;;;;;6152408;23;20858;-84
2022/05/19 13:56:42;;;;;;;72.93;20.70;;;21.00;99.90;;;;;;6152120;23;20851;-86
2022/05/19 13:59:15;;;;;;;77.37;35.97;;;20.80;99.90;;;;;;6097071;23;20371;-85
2022/05/19 14:01:45;;;;;;;70.60;25.33;;;20.80;99.90;;;;;;6122393;23;20386;-85
2022/05/19 14:04:13;;;;;;;72.50;15.40;;;20.90;99.90;;;;;;6123179;23;20347;-85
2022/05/19 14:06:39;;;;;;;78.33;13.47;;;21.20;99.90;;;;;;6122450;23;20399;-85
2022/05/19 14:09:17;;;;;;;75.50;17.67;;;21.10;99.90;;;;;;6122484;23;20373;-84
2022/05/19 14:11:43;;;;;;;71.00;20.10;;;20.90;99.90;;;;;;6123032;23;20177;-86
2022/05/19 14:14:09;;;;;;;66.30;12.17;;;20.90;99.90;;;;;;6134064;23;20410;-86
2022/05/19 14:16:35;;;;;;;71.63;6.27;;;20.90;99.90;;;;;;6136497;23;20409;-86
2022/05/19 14:19:07;;;;;;;68.37;10.70;;;21.00;99.90;;;;;;6136315;23;20214;-86
2022/05/19 14:21:37;;;;;;;71.93;19.40;;;21.20;99.90;;;;;;6134800;23;20393;-85
2022/05/19 14:24:16;;;;;;;79.60;29.33;;;21.10;99.90;;;;;;6136304;23;20362;-85
2022/05/19 14:26:51;;;;;;;80.53;29.60;;;21.20;99.90;;;;;;6135012;23;20353;-84
2022/05/19 14:29:34;;;;;;;73.00;24.93;;;21.20;99.90;;;;;;6124480;23;20354;-83
2022/05/19 14:32:33;;;;;;;73.20;23.53;;;21.30;99.90;;;;;;6123206;23;20410;-83
2022/05/19 14:35:17;;;;;;;83.53;32.00;;;21.40;99.90;;;;;;6126611;23;20426;-83
2022/05/19 14:37:50;;;;;;;77.00;20.70;;;21.40;99.90;;;;;;6124409;23;20799;-83
2022/05/19 14:43:10;;;;;;;70.57;24.07;;;21.50;99.90;;;;;;6123872;23;20382;-83
2022/05/19 14:45:41;;;;;;;72.53;26.23;;;21.40;99.90;;;;;;6123770;23;20351;-83
2022/05/19 14:48:11;;;;;;;71.77;25.43;;;21.40;99.90;;;;;;6099760;23;20375;-83
2022/05/19 14:50:41;;;;;;;71.00;21.03;;;21.30;99.90;;;;;;6125062;23;20366;-83
2022/05/19 14:53:11;;;;;;;68.50;17.80;;;21.30;99.90;;;;;;6098954;23;20383;-83
2022/05/19 14:55:45;;;;;;;69.77;17.57;;;21.20;99.90;;;;;;6124700;23;20363;-82
2022/05/19 14:58:21;;;;;;;74.37;18.07;;;21.10;99.90;;;;;;6124952;23;20362;-83
2022/05/19 15:00:46;;;;;;;69.30;14.00;;;21.10;99.90;;;;;;6124029;23;20428;-84
2022/05/19 15:03:12;;;;;;;70.97;14.07;;;21.00;99.90;;;;;;6123935;23;20418;-83
2022/05/19 15:05:39;;;;;;;67.80;13.03;;;21.00;99.90;;;;;;6123990;23;20598;-84
2022/05/19 15:08:10;;;;;;;68.17;13.10;;;21.00;99.90;;;;;;6124381;23;20832;-83
2022/05/19 15:10:36;;;;;;;70.30;14.70;;;21.00;99.90;;;;;;6124341;23;20370;-83
2022/05/19 15:13:03;;;;;;;65.77;12.30;;;21.00;99.90;;;;;;6124295;23;20382;-83
2022/05/19 15:15:32;;;;;;;67.07;11.03;;;21.00;99.90;;;;;;6099331;23;20158;-83
2022/05/19 15:17:58;;;;;;;66.70;12.10;;;21.10;99.90;;;;;;6094603;22;20378;-85
2022/05/19 15:20:27;;;;;;;68.20;10.70;;;21.00;99.90;;;;;;6105723;23;20448;-88
2022/05/19 15:23:11;;;;;;;69.57;11.13;;;20.80;99.90;;;;;;6101885;23;20360;-86
2022/05/19 15:25:40;;;;;;;66.43;9.90;;;20.70;99.90;;;;;;6102010;23;20392;-88
2022/05/19 15:28:08;;;;;;;64.20;10.00;;;20.70;99.90;;;;;;6101629;23;20360;-86
2022/05/19 15:30:37;;;;;;;65.30;11.90;;;20.70;99.90;;;;;;6102011;23;20376;-85
2022/05/19 15:33:03;;;;;;;64.17;9.07;;;21.00;99.90;;;;;;6102088;23;20831;-86
2022/05/19 15:35:30;;;;;;;67.00;9.30;;;21.10;99.90;;;;;;6101724;23;20380;-86
2022/05/19 15:37:56;;;;;;;67.10;13.37;;;21.10;99.90;;;;;;6102041;23;20372;-86
2022/05/19 15:40:24;;;;;;;66.40;11.00;;;21.10;99.90;;;;;;6076428;23;20398;-86
2022/05/19 15:42:51;;;;;;;66.83;12.70;;;21.30;99.90;;;;;;6102355;23;20392;-86
2022/05/19 15:45:17;;;;;;;69.00;13.23;;;21.50;99.90;;;;;;6076136;23;20423;-86
2022/05/19 15:47:46;;;;;;;66.77;13.27;;;21.70;99.90;;;;;;6077309;23;20380;-87
2022/05/19 15:50:31;;;;;;;64.30;7.90;;;21.80;99.90;;;;;;6102593;23;20398;-88
2022/05/19 15:52:57;;;;;;;64.67;4.07;;;22.10;99.90;;;;;;6078454;23;20391;-85
2022/05/19 15:55:25;;;;;;;63.70;4.20;;;22.30;99.90;;;;;;6104428;23;20367;-86
2022/05/19 15:57:51;;;;;;;65.97;4.87;;;22.40;99.90;;;;;;6104099;23;20364;-85
2022/05/19 16:00:18;;;;;;;63.70;4.10;;;22.50;99.90;;;;;;6078891;23;20375;-86
2022/05/19 16:02:53;;;;;;;63.97;3.87;;;22.40;99.90;;;;;;6103962;23;20694;-86
2022/05/19 16:05:20;;;;;;;68.37;5.57;;;22.50;99.90;;;;;;6104484;23;20884;-86
2022/05/19 16:07:46;;;;;;;64.77;5.10;;;22.40;99.90;;;;;;6104928;23;20360;-86
2022/05/19 16:10:15;;;;;;;63.83;5.67;;;22.30;99.90;;;;;;6103202;23;20374;-86
2022/05/19 16:12:41;;;;;;;64.20;6.00;;;22.40;99.90;;;;;;6077040;23;20888;-87
2022/05/19 16:15:08;;;;;;;65.57;6.07;;;22.40;99.90;;;;;;6077420;23;20476;-86
2022/05/19 16:17:35;;;;;;;64.17;6.97;;;22.50;99.90;;;;;;6102908;23;20372;-86
2022/05/19 16:20:02;;;;;;;64.90;6.70;;;22.50;99.90;;;;;;6072556;23;20407;-86
2022/05/19 16:22:30;;;;;;;64.20;6.00;;;22.60;99.90;;;;;;6071485;23;20436;-86
2022/05/19 16:25:01;;;;;;;63.67;5.83;;;22.60;99.90;;;;;;6072177;23;20435;-86
2022/05/19 16:27:27;;;;;;;64.90;4.87;;;22.60;99.90;;;;;;6073590;23;20865;-86
2022/05/19 16:29:54;;;;;;;69.57;4.30;;;22.40;99.90;;;;;;6073317;23;20387;-85
2022/05/19 16:32:23;;;;;;;62.97;4.70;;;22.60;99.90;;;;;;6073357;23;20523;-86
2022/05/19 16:34:50;;;;;;;65.20;5.43;;;22.80;99.90;;;;;;6095288;23;20377;-89
2022/05/19 16:37:38;;;;;;;64.40;7.97;;;22.90;99.90;;;;;;6071439;23;20487;-88
2022/05/19 16:40:05;;;;;;;66.30;9.27;;;23.10;99.90;;;;;;6074867;23;20349;-87
2022/05/19 16:42:32;;;;;;;64.70;7.87;;;23.40;99.90;;;;;;6072761;23;20392;-87
2022/05/19 16:44:57;;;;;;;64.87;4.30;;;23.70;99.90;;;;;;6072857;23;20408;-88
2022/05/19 16:47:23;;;;;;;68.53;5.17;;;23.80;99.90;;;;;;6072722;23;20830;-88
2022/05/19 16:49:49;;;;;;;63.80;3.60;;;23.90;99.90;;;;;;6073186;23;20135;-88
2022/05/19 16:52:15;;;;;;;70.30;5.30;;;24.70;99.90;;;;;;6072541;23;20400;-87
2022/05/19 16:57:41;;;;;;;66.60;2.73;;;26.60;92.20;;;;;;6075386;23;20358;-86
2022/05/19 17:00:08;;;;;;;67.17;3.80;;;27.20;55.90;;;;;;6072029;23;20370;-86
2022/05/19 17:02:33;;;;;;;68.77;3.87;;;26.90;57.90;;;;;;6072313;23;20392;-86
2022/05/19 17:05:02;;;;;;;68.20;3.60;;;26.20;74.30;;;;;;6072816;23;20454;-86
2022/05/19 17:07:28;;;;;;;64.80;3.70;;;25.60;86.80;;;;;;6074681;23;20147;-86
2022/05/19 17:09:53;;;;;;;66.73;4.57;;;25.00;95.30;;;;;;6074163;23;20368;-86
2022/05/19 17:12:19;;;;;;;66.77;3.10;;;24.60;98.50;;;;;;6073022;23;20171;-86
2022/05/19 17:14:45;;;;;;;67.57;4.73;;;24.30;99.90;;;;;;6075081;23;20162;-86
2022/05/19 17:17:12;;;;;;;66.10;6.63;;;23.80;99.90;;;;;;6075893;23;20257;-86
2022/05/19 17:19:37;;;;;;;65.30;7.50;;;23.70;99.90;;;;;;6095730;23;20172;-87
2022/05/19 17:22:08;;;;;;;65.17;5.50;;;23.80;99.90;;;;;;6104978;23;20434;-86
2022/05/19 17:24:34;;;;;;;66.57;6.73;;;24.00;99.90;;;;;;6079626;23;20172;-86
2022/05/19 17:27:02;;;;;;;67.50;6.87;;;23.90;99.90;;;;;;6078426;23;20386;-88
2022/05/19 17:29:28;;;;;;;68.77;6.50;;;23.60;99.90;;;;;;6077602;23;20377;-87
2022/05/19 17:31:54;;;;;;;63.97;5.20;;;23.50;99.90;;;;;;6078284;23;20456;-87
2022/05/19 17:34:19;;;;;;;66.47;5.07;;;23.20;99.90;;;;;;6102795;23;20153;-88
2022/05/19 17:36:48;;;;;;;67.47;5.57;;;23.20;99.90;;;;;;6103274;23;20476;-87
2022/05/19 17:39:14;;;;;;;65.00;5.00;;;23.10;99.90;;;;;;6077886;23;20159;-87
2022/05/19 17:41:40;;;;;;;63.47;5.07;;;22.90;99.90;;;;;;6080809;23;20400;-87
2022/05/19 17:44:06;;;;;;;67.20;5.27;;;22.90;99.90;;;;;;6076274;23;20420;-88
2022/05/19 17:46:33;;;;;;;63.60;4.40;;;23.30;99.90;;;;;;6102662;23;20900;-88
2022/05/19 17:49:02;;;;;;;66.07;6.27;;;23.80;99.90;;;;;;6074565;23;20420;-87
2022/05/19 17:51:30;;;;;;;65.87;6.00;;;23.90;99.90;;;;;;6096707;23;20851;-87
2022/05/19 17:53:57;;;;;;;64.53;6.10;;;23.80;99.90;;;;;;6101761;23;20377;-85
2022/05/19 17:56:29;;;;;;;64.27;5.43;;;23.60;99.90;;;;;;6103192;23;20378;-85
2022/05/19 17:58:56;;;;;;;64.17;5.30;;;23.50;99.90;;;;;;6102774;23;20361;-85
2022/05/19 18:01:21;;;;;;;65.47;5.50;;;23.50;99.90;;;;;;6102243;23;20404;-84
2022/05/19 18:03:47;;;;;;;67.60;5.00;;;23.40;99.90;;;;;;6076389;23;20501;-87
2022/05/19 18:06:13;;;;;;;63.67;5.17;;;23.20;99.90;;;;;;6099281;23;20194;-87
2022/05/19 18:08:38;;;;;;;64.67;6.13;;;23.10;99.90;;;;;;6074442;23;20146;-87
2022/05/19 18:11:05;;;;;;;69.40;4.50;;;22.90;99.90;;;;;;6101301;23;20164;-87
2022/05/19 18:13:31;;;;;;;65.67;5.23;;;22.90;99.90;;;;;;6099866;23;20147;-88
2022/05/19 18:18:42;;;;;;;66.30;6.57;;;22.60;99.90;;;;;;6098925;23;20740;-86
2022/05/19 18:21:09;;;;;;;64.77;7.00;;;22.30;99.90;;;;;;6094202;23;20508;-86
2022/05/19 18:23:39;;;;;;;69.37;7.90;;;22.20;99.90;;;;;;6095892;23;20481;-87
2022/05/19 18:26:09;;;;;;;65.00;7.07;;;22.30;99.90;;;;;;6069977;23;20383;-87
2022/05/19 18:28:37;;;;;;;65.20;6.00;;;22.60;99.90;;;;;;6098122;23;20367;-88
2022/05/19 18:31:04;;;;;;;65.70;6.40;;;22.60;99.90;;;;;;6074453;23;20396;-86
2022/05/19 18:33:29;;;;;;;65.07;7.43;;;22.50;99.90;;;;;;6100240;23;20406;-88
2022/05/19 18:35:55;;;;;;;66.17;9.97;;;22.40;99.90;;;;;;6074576;23;20384;-88
2022/05/19 18:38:22;;;;;;;68.40;17.07;;;22.30;99.90;;;;;;6100523;23;20592;-87
2022/05/19 18:46:22;;;;;;;67.70;13.90;;;22.10;99.90;;;;;;6099713;23;20355;-87
2022/05/19 18:48:49;;;;;;;67.20;16.03;;;21.90;99.90;;;;;;6098092;23;20844;-88
2022/05/19 18:51:15;;;;;;;66.90;12.40;;;21.80;99.90;;;;;;6074710;23;20407;-87
2022/05/19 18:53:41;;;;;;;65.20;9.37;;;21.60;99.90;;;;;;6099926;23;20348;-88
2022/05/19 18:56:10;;;;;;;64.20;7.90;;;21.50;99.90;;;;;;6099185;23;20150;-87
2022/05/19 18:58:37;;;;;;;64.70;7.70;;;21.40;99.90;;;;;;6073703;23;20379;-88
2022/05/19 19:01:05;;;;;;;64.73;7.30;;;21.40;99.90;;;;;;6099362;23;20392;-87
2022/05/19 19:03:33;;;;;;;68.50;7.93;;;21.30;99.90;;;;;;6099683;23;20414;-88
2022/05/19 19:06:00;;;;;;;67.33;8.23;;;21.30;99.90;;;;;;6098310;23;20425;-88
2022/05/19 19:08:27;;;;;;;64.97;8.70;;;21.10;99.90;;;;;;6097122;23;20399;-87
2022/05/19 19:10:56;;;;;;;67.57;7.60;;;21.00;99.90;;;;;;6070290;23;20406;-88
2022/05/19 19:13:22;;;;;;;64.87;8.73;;;21.00;99.90;;;;;;6105592;23;20424;-88
2022/05/19 19:15:47;;;;;;;67.87;12.43;;;20.90;99.90;;;;;;6072724;23;20434;-88
2022/05/19 19:18:16;;;;;;;64.90;9.47;;;20.90;99.90;;;;;;6094757;23;20406;-87
2022/05/19 19:20:42;;;;;;;66.73;12.57;;;20.80;99.90;;;;;;6096652;23;20630;-88
2022/05/19 19:23:11;;;;;;;68.43;15.80;;;20.80;99.90;;;;;;6095528;23;20380;-88
2022/05/19 19:25:37;;;;;;;66.47;14.17;;;20.70;99.90;;;;;;6095383;23;20147;-88
2022/05/19 19:28:12;;;;;;;67.30;18.57;;;20.70;99.90;;;;;;6072835;23;20395;-88
2022/05/19 19:30:39;;;;;;;68.30;19.97;;;20.60;99.90;;;;;;6072425;23;20736;-87
2022/05/19 19:33:08;;;;;;;67.50;17.37;;;20.50;99.90;;;;;;6100004;23;20363;-87
2022/05/19 19:35:35;;;;;;;67.73;19.03;;;20.50;99.90;;;;;;6072401;23;20376;-88
2022/05/19 19:38:01;;;;;;;67.87;19.97;;;20.50;99.90;;;;;;6095973;23;20364;-89
2022/05/19 19:40:28;;;;;;;70.67;23.20;;;20.50;99.90;;;;;;6094660;23;20423;-87
2022/05/19 19:42:53;;;;;;;67.50;20.33;;;20.50;99.90;;;;;;6071677;23;20382;-88
2022/05/19 19:45:20;;;;;;;69.10;23.57;;;20.50;99.90;;;;;;6098972;23;20832;-87
2022/05/19 19:47:48;;;;;;;70.17;21.80;;;20.50;99.90;;;;;;6073131;23;20147;-88
2022/05/19 19:53:00;;;;;;;66.90;17.57;;;20.30;99.90;;;;;;6099269;23;20409;-88